Terminal Aerodrome Forecast
Issued by NWS

Home | Current Version | Previous Version | Text Only | Print | Product List | Glossary On
Versions: 1 2 3 4 5 6 7 8 9 10 11 12 13
000
FTUS41 KPHI 220500
TAFPNE
TAF
KPNE 220539Z 2206/2306 01010KT P6SM SCT025 OVC040
     FM220900 03010KT 6SM -RA SCT015 OVC035
     FM221100 03010KT 4SM -RA BR SCT007 OVC025
     FM221500 03012G20KT 4SM RA BR OVC012
     FM222100 35016G25KT 6SM -RA BKN020
     FM230200 35017KT P6SM OVC025=

USA.gov is the U.S. government's official web portal to all federal, state and local government web resources and services.